Time;durP1;ratioP1;P1;durP2;ratioP2;P2;SDS_P1;SDS_P2;PMS_P1;PMS_P2;Temp;Humidity;BMP_temperature;BMP_pressure;BME280_temperature;BME280_humidity;BME280_pressure;Samples;Min_cycle;Max_cycle;Signal;HPM_P1;HPM_P2
2021/04/03 00:00:51;;;;;;;14.10;6.90;;;6.50;99.90;;;;;;5097500;28;20414;-71
2021/04/03 00:03:20;;;;;;;11.50;6.70;;;6.50;99.90;;;;;;5098777;28;20171;-72
2021/04/03 00:05:46;;;;;;;10.90;5.97;;;6.60;99.90;;;;;;5099409;28;20410;-72
2021/04/03 00:08:13;;;;;;;20.57;6.17;;;6.60;99.90;;;;;;5097783;28;20415;-72
2021/04/03 00:10:45;;;;;;;8.93;4.47;;;6.70;99.90;;;;;;5098514;28;20199;-72
2021/04/03 00:13:12;;;;;;;12.93;5.13;;;6.70;99.90;;;;;;5099368;28;20414;-71
2021/04/03 00:15:38;;;;;;;10.17;5.40;;;6.60;99.90;;;;;;5098051;28;20510;-72
2021/04/03 00:18:04;;;;;;;8.93;4.03;;;6.60;99.90;;;;;;5097892;28;20477;-73
2021/04/03 00:20:32;;;;;;;8.70;4.20;;;6.70;99.90;;;;;;5097841;28;20288;-73
2021/04/03 00:22:58;;;;;;;14.13;5.20;;;6.70;99.90;;;;;;5097542;28;20161;-73
2021/04/03 00:25:24;;;;;;;14.60;5.30;;;6.70;99.90;;;;;;5091852;28;20420;-73
2021/04/03 00:27:50;;;;;;;13.90;6.60;;;6.70;99.90;;;;;;5077236;28;20808;-72
2021/04/03 00:30:18;;;;;;;11.03;5.63;;;6.80;99.90;;;;;;5076894;28;20457;-72
2021/04/03 00:32:49;;;;;;;9.33;5.70;;;6.60;99.90;;;;;;5075751;28;20646;-72
2021/04/03 00:35:17;;;;;;;10.30;5.33;;;6.60;99.90;;;;;;5089440;28;20431;-73
2021/04/03 00:37:43;;;;;;;8.97;5.90;;;6.50;99.90;;;;;;5099310;28;20431;-72
2021/04/03 00:40:13;;;;;;;12.67;5.87;;;6.60;99.90;;;;;;5094802;28;20459;-72
2021/04/03 00:42:39;;;;;;;14.07;7.13;;;6.50;99.90;;;;;;5079373;28;20196;-72
2021/04/03 00:45:06;;;;;;;15.20;7.70;;;6.50;99.90;;;;;;5085630;28;20450;-72
2021/04/03 00:47:31;;;;;;;17.17;8.17;;;6.50;99.90;;;;;;5088236;28;20458;-72
2021/04/03 00:49:57;;;;;;;15.57;6.90;;;6.50;99.90;;;;;;5077276;28;20447;-72
2021/04/03 00:52:23;;;;;;;20.40;8.63;;;6.60;99.90;;;;;;5075508;28;20173;-72
2021/04/03 00:54:48;;;;;;;16.70;8.57;;;6.60;99.90;;;;;;5077074;28;20495;-72
2021/04/03 00:57:14;;;;;;;13.10;7.80;;;6.60;99.90;;;;;;5081254;28;20241;-71
2021/04/03 00:59:40;;;;;;;22.70;9.23;;;6.70;99.90;;;;;;5096660;28;20228;-72
2021/04/03 01:02:06;;;;;;;19.33;8.93;;;6.70;99.90;;;;;;5095145;28;20184;-72
2021/04/03 01:04:33;;;;;;;14.23;8.30;;;6.50;99.90;;;;;;5096920;28;20760;-72
2021/04/03 01:06:59;;;;;;;16.93;8.53;;;6.50;99.90;;;;;;5096304;27;20513;-71
2021/04/03 01:09:24;;;;;;;12.97;7.10;;;6.40;99.90;;;;;;5096501;28;20942;-72
2021/04/03 01:12:08;;;;;;;15.17;8.03;;;6.30;99.90;;;;;;5096539;28;20653;-72
2021/04/03 01:14:55;;;;;;;13.03;7.60;;;6.10;99.90;;;;;;5096332;28;20177;-72
2021/04/03 01:17:49;;;;;;;20.33;7.73;;;6.10;99.90;;;;;;5097027;28;20956;-73
2021/04/03 01:20:42;;;;;;;16.53;7.73;;;6.00;99.90;;;;;;5095444;28;20486;-72
2021/04/03 01:23:39;;;;;;;18.25;8.43;;;6.00;99.90;;;;;;5093854;28;20403;-72
2021/04/03 01:26:07;;;;;;;11.43;6.33;;;6.10;99.90;;;;;;5096483;28;20165;-72
2021/04/03 01:29:08;;;;;;;13.60;6.13;;;6.20;99.90;;;;;;5095929;28;20472;-72
2021/04/03 01:31:37;;;;;;;12.07;6.07;;;6.10;99.90;;;;;;5093949;27;20442;-72
2021/04/03 01:34:05;;;;;;;17.27;5.50;;;6.10;99.90;;;;;;5095798;28;20708;-72
2021/04/03 01:36:33;;;;;;;14.33;5.47;;;6.00;99.90;;;;;;5094804;28;20422;-72
2021/04/03 01:39:03;;;;;;;10.53;5.20;;;6.00;99.90;;;;;;5095555;28;20462;-72
2021/04/03 01:41:30;;;;;;;18.77;5.13;;;6.00;99.90;;;;;;5095572;28;20515;-72
2021/04/03 01:43:58;;;;;;;10.67;4.90;;;6.00;99.90;;;;;;5094810;28;20908;-72
2021/04/03 01:46:31;;;;;;;9.53;5.77;;;6.20;99.90;;;;;;5078628;28;20504;-72
2021/04/03 01:48:58;;;;;;;17.07;4.57;;;6.20;99.90;;;;;;5075532;28;20404;-72
2021/04/03 01:51:25;;;;;;;11.20;4.20;;;6.20;99.90;;;;;;5075691;28;20454;-73
2021/04/03 01:53:52;;;;;;;10.90;4.57;;;6.20;99.90;;;;;;5076007;28;20412;-72
2021/04/03 01:56:20;;;;;;;11.03;4.53;;;6.20;99.90;;;;;;5083613;27;20439;-72
2021/04/03 01:58:47;;;;;;;8.00;3.30;;;6.20;99.90;;;;;;5095206;28;20810;-72
2021/04/03 02:01:15;;;;;;;12.73;4.50;;;6.20;99.90;;;;;;5095874;28;20449;-72
2021/04/03 02:03:43;;;;;;;12.53;3.93;;;6.30;99.90;;;;;;5095058;28;20399;-72
2021/04/03 02:06:09;;;;;;;10.47;4.20;;;6.30;99.90;;;;;;5094272;28;20432;-72
2021/04/03 02:08:35;;;;;;;8.87;4.00;;;6.40;99.90;;;;;;5095206;28;20494;-72
2021/04/03 02:11:03;;;;;;;7.70;3.90;;;6.50;99.90;;;;;;5095135;28;20437;-72
2021/04/03 02:13:31;;;;;;;11.20;4.67;;;6.40;99.90;;;;;;5095417;28;20403;-72
2021/04/03 02:15:59;;;;;;;9.73;3.63;;;6.30;99.90;;;;;;5094738;28;20410;-72
2021/04/03 02:18:28;;;;;;;9.50;4.63;;;6.20;99.90;;;;;;5094232;28;20514;-72
2021/04/03 02:20:54;;;;;;;6.63;3.10;;;6.20;99.90;;;;;;5094222;28;20927;-72
2021/04/03 02:23:20;;;;;;;10.50;3.73;;;6.20;99.90;;;;;;5094657;28;20403;-72
2021/04/03 02:25:45;;;;;;;12.53;4.43;;;6.20;99.90;;;;;;5094856;27;20778;-73
2021/04/03 02:28:11;;;;;;;10.50;3.50;;;6.10;99.90;;;;;;5094372;28;20188;-72
2021/04/03 02:30:36;;;;;;;11.37;4.13;;;6.20;99.90;;;;;;5094958;28;20246;-72
2021/04/03 02:33:02;;;;;;;10.40;3.87;;;6.20;99.90;;;;;;5095026;28;20636;-72
2021/04/03 02:35:29;;;;;;;7.27;3.93;;;6.20;99.90;;;;;;5093329;28;20175;-72
2021/04/03 02:38:01;;;;;;;13.10;3.93;;;6.20;99.90;;;;;;5093628;27;20191;-72
2021/04/03 02:40:32;;;;;;;11.27;3.33;;;6.30;99.90;;;;;;5074454;28;20462;-73
2021/04/03 02:43:07;;;;;;;9.53;3.57;;;6.20;99.90;;;;;;5074555;28;20411;-72
2021/04/03 02:45:41;;;;;;;10.87;3.90;;;6.20;99.90;;;;;;5074547;28;20438;-72
2021/04/03 02:48:16;;;;;;;13.70;3.87;;;6.20;99.90;;;;;;5074331;28;20904;-72
2021/04/03 02:50:44;;;;;;;13.93;3.63;;;6.20;99.90;;;;;;5073794;28;20446;-72
2021/04/03 02:53:12;;;;;;;6.50;2.40;;;6.10;99.90;;;;;;5074590;28;20419;-72
2021/04/03 02:55:44;;;;;;;5.60;2.90;;;6.10;99.90;;;;;;5073555;28;20436;-72
2021/04/03 02:58:14;;;;;;;13.13;4.13;;;6.10;99.90;;;;;;5072440;28;20430;-72
2021/04/03 03:00:40;;;;;;;7.80;2.93;;;6.10;99.90;;;;;;5085187;28;20560;-72
2021/04/03 03:03:09;;;;;;;7.87;3.20;;;6.10;99.90;;;;;;5094436;28;20421;-72
2021/04/03 03:05:36;;;;;;;14.27;3.23;;;5.90;99.90;;;;;;5093668;27;20418;-72
2021/04/03 03:08:03;;;;;;;7.40;3.27;;;5.90;99.90;;;;;;5093786;28;20410;-72
2021/04/03 03:10:31;;;;;;;9.70;3.90;;;6.00;99.90;;;;;;5093629;28;20880;-72
2021/04/03 03:12:57;;;;;;;6.23;2.70;;;6.00;99.90;;;;;;5094222;28;20407;-72
2021/04/03 03:15:27;;;;;;;8.40;3.10;;;6.00;99.90;;;;;;5094349;28;20418;-72
2021/04/03 03:17:53;;;;;;;16.30;3.67;;;6.00;99.90;;;;;;5093563;28;20503;-72
2021/04/03 03:20:19;;;;;;;9.60;3.90;;;5.90;99.90;;;;;;5094363;28;20454;-72
2021/04/03 03:22:45;;;;;;;9.10;3.37;;;5.90;99.90;;;;;;5075314;28;20657;-72
2021/04/03 03:25:10;;;;;;;6.73;2.33;;;6.10;99.90;;;;;;5089695;28;20215;-72
2021/04/03 03:27:40;;;;;;;9.70;3.40;;;6.10;99.90;;;;;;5073267;28;20765;-72
2021/04/03 03:30:07;;;;;;;10.63;3.73;;;6.20;99.90;;;;;;5073017;28;20723;-72
2021/04/03 03:32:33;;;;;;;15.90;3.50;;;6.10;99.90;;;;;;5085439;28;20415;-72
2021/04/03 03:34:59;;;;;;;9.37;2.50;;;6.10;99.90;;;;;;5093878;28;20406;-72
2021/04/03 03:37:25;;;;;;;13.63;3.00;;;6.10;99.90;;;;;;5093644;28;20522;-72
2021/04/03 03:39:52;;;;;;;7.43;3.63;;;6.10;99.90;;;;;;5093664;28;20446;-72
2021/04/03 03:42:17;;;;;;;14.47;3.30;;;6.10;99.90;;;;;;5093176;27;20171;-72
2021/04/03 03:44:44;;;;;;;12.60;2.90;;;6.10;99.90;;;;;;5093529;28;20383;-72
2021/04/03 03:47:09;;;;;;;6.97;3.10;;;6.20;99.90;;;;;;5093786;28;20252;-72
2021/04/03 03:49:35;;;;;;;10.83;3.23;;;6.20;99.90;;;;;;5092424;28;20963;-72
2021/04/03 03:52:00;;;;;;;9.87;2.80;;;6.30;99.90;;;;;;5092229;28;20194;-72
2021/04/03 03:54:26;;;;;;;10.77;4.00;;;6.40;99.90;;;;;;5077554;28;20195;-72
2021/04/03 03:56:52;;;;;;;10.47;2.97;;;6.30;99.90;;;;;;5074102;28;20173;-72
2021/04/03 03:59:17;;;;;;;9.50;3.30;;;6.30;99.90;;;;;;5073847;28;20196;-72
2021/04/03 04:01:43;;;;;;;12.87;3.60;;;6.20;99.90;;;;;;5074281;28;20639;-72
2021/04/03 04:04:09;;;;;;;7.63;3.60;;;6.20;99.90;;;;;;5081745;28;20172;-72
2021/04/03 04:06:34;;;;;;;8.53;3.00;;;6.20;99.90;;;;;;5080626;28;20420;-73
2021/04/03 04:09:03;;;;;;;10.50;2.97;;;6.30;99.90;;;;;;5073203;28;20521;-72
2021/04/03 04:11:29;;;;;;;10.30;3.43;;;6.50;99.90;;;;;;5073162;28;20792;-72
2021/04/03 04:13:54;;;;;;;9.63;4.17;;;6.50;99.90;;;;;;5074546;28;20498;-72
2021/04/03 04:16:20;;;;;;;8.60;3.57;;;6.40;99.90;;;;;;5073313;28;20292;-72
2021/04/03 04:18:45;;;;;;;10.67;4.40;;;6.40;99.90;;;;;;5073688;28;20198;-72
2021/04/03 04:21:11;;;;;;;17.13;4.10;;;6.30;99.90;;;;;;5073665;28;20196;-72
2021/04/03 04:23:37;;;;;;;7.60;3.20;;;6.20;99.90;;;;;;5078389;28;20178;-72
2021/04/03 04:26:02;;;;;;;11.93;3.77;;;6.10;99.90;;;;;;5082104;28;20178;-72
2021/04/03 04:28:28;;;;;;;11.73;3.20;;;6.10;99.90;;;;;;5090440;28;20181;-73
2021/04/03 04:30:54;;;;;;;14.03;4.47;;;6.20;99.90;;;;;;5077507;28;20242;-73
2021/04/03 04:33:20;;;;;;;15.33;4.20;;;6.30;99.90;;;;;;5073102;28;20194;-73
2021/04/03 04:35:46;;;;;;;7.67;3.00;;;6.30;99.90;;;;;;5074533;28;20180;-72
2021/04/03 04:38:11;;;;;;;17.10;3.23;;;6.20;99.90;;;;;;5073082;28;20440;-72
2021/04/03 04:40:37;;;;;;;7.87;2.80;;;6.20;99.90;;;;;;5073252;28;20216;-72
2021/04/03 04:43:02;;;;;;;6.00;3.50;;;6.20;99.90;;;;;;5074250;28;20265;-72
2021/04/03 04:45:28;;;;;;;11.10;3.83;;;6.20;99.90;;;;;;5076981;28;20284;-72
2021/04/03 04:47:54;;;;;;;17.30;4.20;;;6.20;99.90;;;;;;5094514;28;20184;-73
2021/04/03 04:50:19;;;;;;;9.83;3.23;;;6.20;99.90;;;;;;5096592;28;20192;-71
2021/04/03 04:52:45;;;;;;;12.33;3.90;;;6.10;99.90;;;;;;5096984;28;20264;-73
2021/04/03 04:55:11;;;;;;;9.30;3.60;;;6.10;99.90;;;;;;5097286;28;20215;-72
2021/04/03 04:57:36;;;;;;;12.13;3.97;;;6.10;99.90;;;;;;5094029;28;20176;-73
2021/04/03 05:00:04;;;;;;;15.37;5.47;;;6.00;99.90;;;;;;5094491;28;20501;-73
2021/04/03 05:02:29;;;;;;;9.80;3.50;;;6.00;99.90;;;;;;5097211;28;20199;-73
2021/04/03 05:04:55;;;;;;;13.60;3.80;;;6.00;99.90;;;;;;5100191;28;20411;-72
2021/04/03 05:07:20;;;;;;;10.03;3.43;;;6.10;99.90;;;;;;5101529;28;20175;-72
2021/04/03 05:09:46;;;;;;;10.53;3.40;;;6.20;99.90;;;;;;5076936;28;20177;-72
2021/04/03 05:12:11;;;;;;;12.50;4.00;;;6.30;99.90;;;;;;5076453;28;20174;-72
2021/04/03 05:14:37;;;;;;;12.43;3.67;;;6.50;99.90;;;;;;5076625;28;20173;-72
2021/04/03 05:17:03;;;;;;;11.33;4.27;;;6.60;99.90;;;;;;5075124;28;20213;-72
2021/04/03 05:19:29;;;;;;;7.90;3.20;;;6.50;99.90;;;;;;5086868;28;20259;-72
2021/04/03 05:21:54;;;;;;;13.10;4.00;;;6.50;99.90;;;;;;5095015;28;20823;-72
2021/04/03 05:24:20;;;;;;;7.10;3.77;;;6.50;99.90;;;;;;5096396;28;20169;-72
2021/04/03 05:26:45;;;;;;;11.83;3.63;;;6.40;99.90;;;;;;5095333;27;20217;-72
2021/04/03 05:29:11;;;;;;;11.37;4.30;;;6.50;99.90;;;;;;5095718;28;20188;-73
2021/04/03 05:31:37;;;;;;;11.43;4.00;;;6.30;99.90;;;;;;5088366;28;20209;-72
2021/04/03 05:34:03;;;;;;;9.80;3.80;;;6.30;99.90;;;;;;5084656;28;20183;-72
2021/04/03 05:36:28;;;;;;;9.00;3.73;;;6.20;99.90;;;;;;5075674;28;20448;-72
2021/04/03 05:38:54;;;;;;;10.10;3.87;;;5.90;99.90;;;;;;5076109;28;20203;-72
2021/04/03 05:41:19;;;;;;;14.20;4.60;;;5.70;99.90;;;;;;5095768;28;20226;-72
2021/04/03 05:43:47;;;;;;;7.70;3.67;;;5.70;99.90;;;;;;5095487;28;20646;-72
2021/04/03 05:46:14;;;;;;;11.70;4.30;;;5.80;99.90;;;;;;5091345;28;20181;-73
2021/04/03 05:48:40;;;;;;;14.40;4.37;;;5.90;99.90;;;;;;5094139;28;20438;-72
2021/04/03 05:51:06;;;;;;;15.53;4.70;;;5.90;99.90;;;;;;5093996;28;20757;-72
2021/04/03 05:53:31;;;;;;;13.20;4.40;;;6.00;99.90;;;;;;5093578;28;20483;-72
2021/04/03 05:55:58;;;;;;;12.03;4.03;;;5.90;99.90;;;;;;5094627;28;20191;-72
2021/04/03 05:58:24;;;;;;;17.47;5.40;;;6.00;99.90;;;;;;5094719;27;20519;-72
2021/04/03 06:00:54;;;;;;;13.33;5.00;;;6.00;99.90;;;;;;5090743;28;20493;-72
2021/04/03 06:03:20;;;;;;;17.70;5.70;;;6.00;99.90;;;;;;5094784;28;20419;-72
2021/04/03 06:05:49;;;;;;;8.10;3.87;;;6.00;99.90;;;;;;5095646;28;20916;-72
2021/04/03 06:08:15;;;;;;;13.07;4.87;;;5.90;99.90;;;;;;5095289;27;20875;-72
2021/04/03 06:10:41;;;;;;;11.60;4.97;;;5.90;99.90;;;;;;5095994;28;20438;-72
2021/04/03 06:13:17;;;;;;;13.47;5.90;;;5.80;99.90;;;;;;5095370;28;20200;-74
2021/04/03 06:15:43;;;;;;;18.50;5.80;;;5.70;99.90;;;;;;5094396;28;20422;-74
2021/04/03 06:18:11;;;;;;;18.10;6.90;;;5.60;99.90;;;;;;5094579;27;20550;-72
2021/04/03 06:20:39;;;;;;;12.30;4.10;;;5.60;99.90;;;;;;5078513;28;20273;-71
2021/04/03 06:23:07;;;;;;;18.93;6.10;;;5.80;99.90;;;;;;5092699;28;20423;-72
2021/04/03 06:25:53;;;;;;;15.07;4.70;;;5.80;99.90;;;;;;5090965;28;20434;-72
2021/04/03 06:28:28;;;;;;;12.60;4.57;;;5.80;99.90;;;;;;5073981;28;20418;-72
2021/04/03 06:30:59;;;;;;;14.20;5.13;;;5.80;99.90;;;;;;5074067;28;20527;-71
2021/04/03 06:33:25;;;;;;;15.33;5.00;;;5.80;99.90;;;;;;5073789;28;20408;-72
2021/04/03 06:36:11;;;;;;;20.30;4.70;;;5.70;99.90;;;;;;5078183;28;20527;-72
2021/04/03 06:38:38;;;;;;;10.40;4.47;;;5.70;99.90;;;;;;5082931;27;20488;-73
2021/04/03 06:41:25;;;;;;;14.97;5.00;;;5.70;99.90;;;;;;5095101;28;20437;-71
2021/04/03 06:44:01;;;;;;;16.10;5.83;;;5.70;99.90;;;;;;5085308;28;20594;-72
2021/04/03 06:46:27;;;;;;;9.60;4.37;;;5.80;99.90;;;;;;5093153;28;20487;-72
2021/04/03 06:48:53;;;;;;;14.77;3.97;;;5.80;99.90;;;;;;5089172;27;21240;-71
2021/04/03 06:51:22;;;;;;;13.50;4.47;;;5.90;99.90;;;;;;5098318;28;20264;-71
2021/04/03 06:53:48;;;;;;;17.97;5.93;;;6.00;99.90;;;;;;5098417;28;20429;-72
2021/04/03 06:56:14;;;;;;;6.93;4.13;;;6.00;99.90;;;;;;5101266;28;20430;-72
2021/04/03 06:58:44;;;;;;;19.47;5.53;;;6.00;99.90;;;;;;5084485;28;20441;-72
2021/04/03 07:01:11;;;;;;;12.07;4.67;;;6.10;99.90;;;;;;5100044;27;20453;-72
2021/04/03 07:03:41;;;;;;;16.90;5.50;;;6.30;99.90;;;;;;5100826;28;20434;-71
2021/04/03 07:06:08;;;;;;;10.93;4.03;;;6.40;99.90;;;;;;5098970;28;20736;-72
2021/04/03 07:08:36;;;;;;;19.30;4.57;;;6.30;99.90;;;;;;5098033;28;20488;-71
2021/04/03 07:11:04;;;;;;;18.13;5.90;;;6.40;99.90;;;;;;5090214;27;20465;-72
2021/04/03 07:13:29;;;;;;;17.67;5.23;;;6.60;99.90;;;;;;5093868;28;20899;-72
2021/04/03 07:15:56;;;;;;;20.13;5.17;;;6.60;99.90;;;;;;5090165;28;20430;-73
2021/04/03 07:18:24;;;;;;;12.43;4.90;;;6.60;99.90;;;;;;5110288;28;20537;-72
2021/04/03 07:20:52;;;;;;;9.70;4.17;;;6.80;99.90;;;;;;5093707;28;21036;-72
2021/04/03 07:23:18;;;;;;;14.17;4.60;;;6.90;99.90;;;;;;5100588;28;20777;-72
2021/04/03 07:25:45;;;;;;;14.07;4.83;;;7.00;99.90;;;;;;5097400;28;20909;-73
2021/04/03 07:28:11;;;;;;;8.20;4.57;;;7.00;99.90;;;;;;5099058;28;20414;-73
2021/04/03 07:30:40;;;;;;;9.10;4.37;;;7.10;99.90;;;;;;5085891;28;20448;-73
2021/04/03 07:33:07;;;;;;;14.37;4.60;;;7.10;99.90;;;;;;5101074;28;20509;-71
2021/04/03 07:35:45;;;;;;;17.13;4.60;;;7.30;99.90;;;;;;5092006;28;20476;-72
2021/04/03 07:38:13;;;;;;;13.10;5.43;;;7.50;99.90;;;;;;5080102;28;20806;-72
2021/04/03 07:40:56;;;;;;;12.07;4.17;;;7.80;99.90;;;;;;5097658;28;20483;-71
2021/04/03 07:44:09;;;;;;;10.73;4.33;;;7.90;99.90;;;;;;5093040;28;20451;-71
2021/04/03 07:46:41;;;;;;;8.93;4.20;;;7.90;99.10;;;;;;5028987;28;20432;-73
2021/04/03 07:49:08;;;;;;;16.60;4.50;;;8.00;98.70;;;;;;5047597;28;21221;-72
2021/04/03 07:51:34;;;;;;;8.27;3.50;;;8.10;98.60;;;;;;5038232;28;20455;-71
2021/04/03 07:54:01;;;;;;;12.30;4.17;;;8.20;98.30;;;;;;5038455;28;20942;-72
2021/04/03 07:56:46;;;;;;;22.13;4.83;;;8.20;97.90;;;;;;5028366;28;20221;-71
2021/04/03 07:59:12;;;;;;;11.30;3.70;;;8.10;97.80;;;;;;5046416;28;20780;-72
2021/04/03 08:01:38;;;;;;;14.47;4.60;;;8.30;98.00;;;;;;5041003;28;20548;-72
2021/04/03 08:04:05;;;;;;;14.87;4.80;;;8.20;97.90;;;;;;5023043;28;20219;-72
2021/04/03 08:06:36;;;;;;;13.17;4.37;;;8.20;98.00;;;;;;5044270;28;20465;-71
2021/04/03 08:09:05;;;;;;;13.37;4.87;;;8.30;97.80;;;;;;5048809;28;20463;-71
2021/04/03 08:11:31;;;;;;;10.40;5.20;;;8.30;97.40;;;;;;5051037;28;20917;-71
2021/04/03 08:13:58;;;;;;;14.20;5.27;;;8.20;97.50;;;;;;5031545;28;20425;-72
2021/04/03 08:16:27;;;;;;;10.13;5.20;;;8.10;97.60;;;;;;5013209;28;20200;-73
2021/04/03 08:18:55;;;;;;;14.37;4.40;;;8.00;96.60;;;;;;5015634;28;21168;-71
2021/04/03 08:21:22;;;;;;;21.10;4.40;;;7.90;96.20;;;;;;5029792;28;20506;-72
2021/04/03 08:23:50;;;;;;;9.93;5.10;;;7.80;96.10;;;;;;5076910;28;20460;-72
2021/04/03 08:26:21;;;;;;;14.67;4.70;;;7.80;96.30;;;;;;5076005;28;20412;-72
2021/04/03 08:28:47;;;;;;;9.13;4.37;;;7.90;96.40;;;;;;5076528;28;20463;-71
2021/04/03 08:31:14;;;;;;;9.63;4.40;;;8.00;96.20;;;;;;5076207;28;20519;-72
2021/04/03 08:33:39;;;;;;;13.57;5.13;;;8.20;96.10;;;;;;5081921;28;20416;-72
2021/04/03 08:36:16;;;;;;;15.23;4.63;;;8.20;96.10;;;;;;5097731;28;20424;-72
2021/04/03 08:38:43;;;;;;;14.13;5.37;;;8.30;96.20;;;;;;5097584;28;20171;-72
2021/04/03 08:41:11;;;;;;;14.67;4.80;;;8.20;96.30;;;;;;5097114;28;20426;-71
2021/04/03 08:43:36;;;;;;;13.40;5.17;;;8.40;96.40;;;;;;5096802;28;20403;-71
2021/04/03 08:46:08;;;;;;;9.17;4.50;;;8.50;96.60;;;;;;5095949;28;20414;-71
2021/04/03 08:48:37;;;;;;;17.00;5.70;;;8.60;96.20;;;;;;5096402;28;20422;-71
2021/04/03 08:51:04;;;;;;;16.93;5.00;;;8.70;95.90;;;;;;5095710;28;20512;-71
2021/04/03 08:53:58;;;;;;;12.10;5.33;;;8.60;96.10;;;;;;5096454;28;20892;-72
2021/04/03 08:56:31;;;;;;;6.73;4.37;;;8.70;96.10;;;;;;5091642;28;20437;-72
2021/04/03 08:58:59;;;;;;;15.07;6.27;;;8.80;95.90;;;;;;5095732;28;20454;-72
2021/04/03 09:01:27;;;;;;;17.47;5.73;;;8.80;95.70;;;;;;5094782;28;20423;-70
2021/04/03 09:03:56;;;;;;;15.77;5.93;;;8.90;95.50;;;;;;5096158;28;20839;-72
2021/04/03 09:06:40;;;;;;;11.27;4.47;;;8.90;95.20;;;;;;5083417;28;20438;-72
2021/04/03 09:09:12;;;;;;;8.00;4.47;;;8.90;95.30;;;;;;5075778;28;20402;-71
2021/04/03 09:11:38;;;;;;;10.20;4.30;;;9.00;94.70;;;;;;5076467;28;20828;-71
2021/04/03 09:14:04;;;;;;;12.07;4.80;;;9.10;94.60;;;;;;5076442;28;20414;-71
2021/04/03 09:16:37;;;;;;;12.10;4.97;;;9.30;94.50;;;;;;5077148;28;20513;-71
2021/04/03 09:19:04;;;;;;;11.67;4.50;;;9.40;94.00;;;;;;5074487;28;20494;-71
2021/04/03 09:21:30;;;;;;;14.67;5.60;;;9.70;94.00;;;;;;5076303;28;20459;-71
2021/04/03 09:23:56;;;;;;;14.60;5.83;;;9.60;93.90;;;;;;5077492;28;20408;-72
2021/04/03 09:26:35;;;;;;;10.20;5.00;;;9.60;93.90;;;;;;5078143;28;20404;-72
2021/04/03 09:29:08;;;;;;;14.93;4.83;;;9.50;94.10;;;;;;5074503;28;20418;-71
2021/04/03 09:31:51;;;;;;;9.63;5.20;;;9.70;94.20;;;;;;5074733;28;20437;-71
2021/04/03 09:34:17;;;;;;;11.50;5.23;;;9.80;94.00;;;;;;5076547;28;20439;-71
2021/04/03 09:36:50;;;;;;;10.47;5.70;;;9.70;93.80;;;;;;5095614;28;20479;-71
2021/04/03 09:39:20;;;;;;;15.40;6.20;;;9.70;93.90;;;;;;5095459;28;20306;-71
2021/04/03 09:41:50;;;;;;;13.93;7.00;;;9.40;94.50;;;;;;5095959;28;20411;-71
2021/04/03 09:44:16;;;;;;;10.27;5.20;;;9.40;94.70;;;;;;5096074;28;20741;-71
2021/04/03 09:46:43;;;;;;;11.00;5.03;;;9.30;94.90;;;;;;5094304;27;20434;-72
2021/04/03 09:49:10;;;;;;;12.57;5.83;;;9.40;94.90;;;;;;5094051;28;20998;-71
2021/04/03 09:51:36;;;;;;;11.17;5.90;;;9.40;94.70;;;;;;5095823;28;20431;-72
2021/04/03 09:54:04;;;;;;;15.00;7.60;;;9.50;94.90;;;;;;5095573;28;20419;-72
2021/04/03 09:56:29;;;;;;;12.33;6.70;;;9.70;94.80;;;;;;5093525;27;20435;-72
2021/04/03 09:58:57;;;;;;;11.50;6.60;;;9.90;94.60;;;;;;5095094;28;20408;-72
2021/04/03 10:01:22;;;;;;;12.10;5.70;;;9.90;94.50;;;;;;5095326;28;20492;-72
2021/04/03 10:03:48;;;;;;;16.37;8.10;;;9.90;94.50;;;;;;5095212;28;20399;-72
2021/04/03 10:06:13;;;;;;;11.50;6.27;;;10.10;93.80;;;;;;5092262;28;20208;-71
2021/04/03 10:08:39;;;;;;;21.50;6.10;;;10.00;93.70;;;;;;5094626;27;20207;-71
2021/04/03 10:11:05;;;;;;;14.30;6.37;;;10.30;93.60;;;;;;5095154;28;20268;-71
2021/04/03 10:13:30;;;;;;;8.93;6.53;;;10.10;93.50;;;;;;5095214;28;20644;-71
2021/04/03 10:15:56;;;;;;;8.77;6.67;;;10.00;93.90;;;;;;5095752;28;20419;-71
2021/04/03 10:18:21;;;;;;;12.33;6.70;;;10.10;94.10;;;;;;5092787;28;20238;-71
2021/04/03 10:20:47;;;;;;;12.00;7.27;;;10.00;94.10;;;;;;5095266;28;20207;-71
2021/04/03 10:23:13;;;;;;;15.77;7.80;;;10.00;94.30;;;;;;5095264;27;20181;-72
2021/04/03 10:25:38;;;;;;;16.80;7.43;;;10.20;93.90;;;;;;5095662;28;20477;-72
2021/04/03 10:28:04;;;;;;;12.87;8.20;;;10.40;93.90;;;;;;5088501;28;20175;-71
2021/04/03 10:30:29;;;;;;;15.17;8.80;;;10.40;93.70;;;;;;5075616;28;20243;-71
2021/04/03 10:32:55;;;;;;;14.57;8.07;;;10.30;93.70;;;;;;5080035;28;20236;-72
2021/04/03 10:35:21;;;;;;;11.50;7.43;;;10.20;93.90;;;;;;5077527;28;20216;-72
2021/04/03 10:37:46;;;;;;;18.43;8.23;;;10.30;94.10;;;;;;5074618;28;20177;-72
2021/04/03 10:40:12;;;;;;;17.00;9.00;;;10.60;94.00;;;;;;5074775;28;20545;-71
2021/04/03 10:42:38;;;;;;;16.80;8.40;;;10.60;93.60;;;;;;5074726;28;20173;-72
2021/04/03 10:45:04;;;;;;;12.20;9.30;;;10.60;93.60;;;;;;5073128;28;20431;-72
2021/04/03 10:47:30;;;;;;;16.67;9.33;;;10.50;93.90;;;;;;5090751;28;20637;-71
2021/04/03 10:49:55;;;;;;;14.80;8.93;;;10.40;93.80;;;;;;5090672;28;20449;-72
2021/04/03 10:52:21;;;;;;;15.27;8.80;;;10.40;94.00;;;;;;5074581;28;20227;-72
2021/04/03 10:54:47;;;;;;;14.17;8.57;;;10.50;93.90;;;;;;5074425;28;20178;-72
2021/04/03 11:00:34;;;;;;;16.70;10.77;;;10.70;93.80;;;;;;5075029;28;20752;-72
2021/04/03 11:06:21;;;;;;;19.30;9.60;;;10.30;94.40;;;;;;5073392;28;20176;-71
2021/04/03 11:09:02;;;;;;;17.27;9.50;;;10.30;94.30;;;;;;5092512;28;20418;-71
2021/04/03 11:11:27;;;;;;;12.13;9.57;;;10.20;94.40;;;;;;5079016;28;20233;-72
2021/04/03 11:13:53;;;;;;;20.33;9.70;;;10.20;94.50;;;;;;5073890;28;20396;-71
2021/04/03 11:16:18;;;;;;;16.83;9.20;;;10.10;94.40;;;;;;5072464;28;20169;-71
2021/04/03 11:18:44;;;;;;;15.83;9.13;;;10.00;94.70;;;;;;5071696;28;20646;-71
2021/04/03 11:21:09;;;;;;;16.97;10.80;;;10.10;94.80;;;;;;5078407;27;20231;-72
2021/04/03 11:23:35;;;;;;;12.40;8.30;;;10.30;94.60;;;;;;5094567;28;20176;-72
2021/04/03 11:26:01;;;;;;;14.90;9.93;;;10.30;94.40;;;;;;5094041;28;20634;-72
2021/04/03 11:28:26;;;;;;;10.90;8.47;;;10.20;94.20;;;;;;5093284;28;20173;-71
2021/04/03 11:30:52;;;;;;;19.33;9.60;;;10.40;94.40;;;;;;5093993;28;20196;-71
2021/04/03 11:33:17;;;;;;;21.77;8.47;;;10.40;94.10;;;;;;5092199;27;20287;-72
2021/04/03 11:35:43;;;;;;;14.13;8.00;;;10.40;93.90;;;;;;5092648;28;20608;-71
2021/04/03 11:38:09;;;;;;;15.77;9.33;;;10.50;94.10;;;;;;5093635;28;20290;-72
2021/04/03 11:40:34;;;;;;;12.40;8.77;;;10.50;94.20;;;;;;5093999;28;20240;-71
2021/04/03 11:43:00;;;;;;;12.90;8.47;;;10.60;94.20;;;;;;5091930;28;20176;-72
2021/04/03 11:45:26;;;;;;;13.93;8.60;;;10.90;94.20;;;;;;5075864;28;20199;-71
2021/04/03 11:47:53;;;;;;;15.37;8.80;;;11.00;93.50;;;;;;5093899;28;20402;-72
2021/04/03 11:50:19;;;;;;;14.83;9.10;;;11.00;93.20;;;;;;5094408;28;20455;-71
2021/04/03 11:52:46;;;;;;;13.80;8.50;;;11.10;93.50;;;;;;5096958;28;20428;-72
2021/04/03 11:55:21;;;;;;;14.10;7.43;;;11.20;93.00;;;;;;5112066;27;20460;-72
2021/04/03 11:57:47;;;;;;;15.00;7.83;;;11.10;92.30;;;;;;5117618;28;20790;-71
2021/04/03 12:00:14;;;;;;;12.20;7.20;;;10.90;92.20;;;;;;5117905;28;20457;-71
2021/04/03 12:02:40;;;;;;;16.30;7.60;;;11.10;92.60;;;;;;5118503;27;20186;-72
2021/04/03 12:05:08;;;;;;;10.53;7.10;;;11.00;92.20;;;;;;5098620;28;20439;-71
2021/04/03 12:07:38;;;;;;;10.60;6.40;;;11.10;92.30;;;;;;5099470;28;20403;-72
2021/04/03 12:10:05;;;;;;;12.13;7.00;;;11.20;92.20;;;;;;5097968;28;20525;-72
2021/04/03 12:12:31;;;;;;;11.20;6.33;;;11.20;92.00;;;;;;5097710;28;20465;-72
2021/04/03 12:14:57;;;;;;;9.83;5.87;;;11.40;91.80;;;;;;5095120;28;20415;-70
2021/04/03 12:17:23;;;;;;;10.90;6.93;;;11.60;91.60;;;;;;5099070;27;20330;-71
2021/04/03 12:19:49;;;;;;;11.20;6.70;;;11.50;91.60;;;;;;5098891;28;20947;-71
2021/04/03 12:22:14;;;;;;;11.67;6.27;;;11.40;91.70;;;;;;5099228;28;20482;-71
2021/04/03 12:24:40;;;;;;;10.70;5.60;;;11.40;91.80;;;;;;5096508;28;20181;-71
2021/04/03 12:27:06;;;;;;;9.57;5.10;;;11.30;90.80;;;;;;5078515;28;20176;-71
2021/04/03 12:29:31;;;;;;;10.37;6.30;;;11.40;90.90;;;;;;5077781;28;20735;-71
2021/04/03 12:31:57;;;;;;;13.37;6.27;;;11.40;90.70;;;;;;5077037;28;20423;-71
2021/04/03 12:34:22;;;;;;;7.13;6.03;;;11.40;90.50;;;;;;5077494;28;20169;-71
2021/04/03 12:36:49;;;;;;;9.67;6.37;;;11.50;90.10;;;;;;5078133;28;20204;-70
2021/04/03 12:39:14;;;;;;;12.33;6.30;;;11.60;90.00;;;;;;5076603;28;20235;-71
2021/04/03 12:41:40;;;;;;;10.67;6.07;;;11.80;90.00;;;;;;5076703;28;20807;-71
2021/04/03 12:44:05;;;;;;;9.33;6.23;;;11.90;90.00;;;;;;5097970;28;20230;-71
2021/04/03 12:46:31;;;;;;;9.00;5.80;;;11.90;87.70;;;;;;5090220;28;20173;-71
2021/04/03 12:48:56;;;;;;;9.73;6.53;;;11.80;87.50;;;;;;5075867;28;20212;-71
2021/04/03 12:51:22;;;;;;;11.53;6.30;;;11.70;87.70;;;;;;5076778;28;20185;-71
2021/04/03 12:53:47;;;;;;;12.13;6.70;;;11.90;88.30;;;;;;5076322;28;20188;-71
2021/04/03 12:56:13;;;;;;;8.10;5.80;;;12.00;87.20;;;;;;5076907;28;20169;-71
2021/04/03 12:58:38;;;;;;;8.97;6.13;;;12.00;87.50;;;;;;5094851;28;20194;-71